Time;durP1;ratioP1;P1;durP2;ratioP2;P2;SDS_P1;SDS_P2;PMS_P1;PMS_P2;Temp;Humidity;BMP_temperature;BMP_pressure;BME280_temperature;BME280_humidity;BME280_pressure;Samples;Min_cycle;Max_cycle;Signal;HPM_P1;HPM_P2
2023/10/27 00:00:05;;;;;;;20.97;13.73;;;20.30;69.60;;;;;;4983934;28;20454;-81
2023/10/27 00:02:38;;;;;;;20.30;12.87;;;20.30;69.50;;;;;;4977820;28;20505;-81
2023/10/27 00:05:07;;;;;;;19.13;12.60;;;20.30;69.70;;;;;;4982096;28;20454;-81
2023/10/27 00:07:35;;;;;;;18.10;12.27;;;20.30;69.70;;;;;;4985374;28;20473;-80
2023/10/27 00:10:03;;;;;;;18.93;12.90;;;20.30;69.60;;;;;;4971320;28;20949;-80
2023/10/27 00:12:32;;;;;;;21.63;12.33;;;20.30;69.70;;;;;;4970557;28;20506;-81
2023/10/27 00:15:00;;;;;;;25.30;12.13;;;20.30;69.80;;;;;;4983137;28;20465;-80
2023/10/27 00:17:28;;;;;;;19.00;12.70;;;20.30;69.80;;;;;;4971176;28;20466;-81
2023/10/27 00:19:58;;;;;;;19.23;13.27;;;20.30;69.90;;;;;;5003009;23;20481;-82
2023/10/27 00:22:26;;;;;;;20.50;13.03;;;20.30;69.70;;;;;;4979375;28;20946;-81
2023/10/27 00:24:54;;;;;;;21.20;11.60;;;20.30;69.90;;;;;;4975856;28;20954;-83
2023/10/27 00:27:22;;;;;;;21.10;12.70;;;20.30;70.10;;;;;;4975724;28;20452;-80
2023/10/27 00:29:52;;;;;;;20.13;11.47;;;20.30;69.80;;;;;;4977501;28;20497;-81
2023/10/27 00:32:20;;;;;;;18.63;11.60;;;20.30;69.90;;;;;;4977851;28;20442;-82
2023/10/27 00:34:48;;;;;;;15.43;10.83;;;20.30;69.90;;;;;;4976961;28;20514;-78
2023/10/27 00:37:17;;;;;;;22.37;11.90;;;20.30;70.10;;;;;;4975120;28;20553;-79
2023/10/27 00:39:45;;;;;;;19.77;11.47;;;20.30;69.90;;;;;;4976984;28;20443;-80
2023/10/27 00:42:13;;;;;;;16.63;11.10;;;20.30;70.00;;;;;;4977849;28;20473;-81
2023/10/27 00:44:41;;;;;;;21.53;11.37;;;20.30;69.90;;;;;;4975481;28;20453;-82
2023/10/27 00:47:11;;;;;;;17.17;11.27;;;20.30;70.10;;;;;;4976730;28;20502;-81
2023/10/27 00:49:39;;;;;;;17.00;11.33;;;20.30;70.00;;;;;;4971081;28;20446;-79
2023/10/27 00:52:07;;;;;;;16.17;11.10;;;20.20;70.10;;;;;;4970874;28;20467;-80
2023/10/27 00:54:35;;;;;;;17.70;11.77;;;20.20;70.00;;;;;;4975384;28;20447;-80
2023/10/27 00:57:03;;;;;;;15.57;10.87;;;20.20;70.00;;;;;;4975816;28;20474;-80
2023/10/27 00:59:32;;;;;;;18.47;10.80;;;20.20;70.20;;;;;;4980909;28;20441;-79
2023/10/27 01:02:00;;;;;;;16.73;10.73;;;20.20;70.30;;;;;;4971718;28;20528;-80
2023/10/27 01:04:29;;;;;;;15.60;10.40;;;20.20;70.20;;;;;;4982085;28;20468;-80
2023/10/27 01:06:57;;;;;;;19.80;11.10;;;20.20;70.10;;;;;;4977844;28;20511;-80
2023/10/27 01:09:25;;;;;;;16.43;11.23;;;20.20;70.20;;;;;;4982998;28;20457;-81
2023/10/27 01:11:53;;;;;;;16.00;10.73;;;20.20;70.40;;;;;;4977439;28;20497;-81
2023/10/27 01:14:21;;;;;;;16.27;10.20;;;20.20;70.40;;;;;;4989496;28;20488;-81
2023/10/27 01:16:50;;;;;;;16.20;10.20;;;20.20;70.30;;;;;;4970920;28;20478;-80
2023/10/27 01:19:18;;;;;;;17.87;10.93;;;20.20;70.20;;;;;;4973523;28;20545;-81
2023/10/27 01:21:48;;;;;;;17.13;10.33;;;20.20;70.00;;;;;;4989867;28;20504;-81
2023/10/27 01:24:17;;;;;;;15.67;10.23;;;20.20;70.40;;;;;;4984812;28;20487;-80
2023/10/27 01:26:45;;;;;;;18.70;10.87;;;20.20;70.40;;;;;;4977736;28;20537;-80
2023/10/27 01:29:13;;;;;;;13.63;9.50;;;20.20;70.50;;;;;;4975817;28;20549;-81
2023/10/27 01:31:41;;;;;;;19.30;10.70;;;20.20;70.20;;;;;;4982274;28;20565;-81
2023/10/27 01:34:09;;;;;;;17.37;10.03;;;20.20;70.40;;;;;;4976748;28;20545;-81
2023/10/27 01:36:38;;;;;;;16.93;10.53;;;20.20;70.50;;;;;;4973097;28;20462;-81
2023/10/27 01:39:07;;;;;;;14.10;9.53;;;20.10;70.50;;;;;;4980581;28;20505;-80
2023/10/27 01:41:36;;;;;;;15.43;9.57;;;20.10;70.50;;;;;;4983164;28;20466;-81
2023/10/27 01:44:05;;;;;;;17.23;9.97;;;20.10;70.50;;;;;;4980201;28;20450;-81
2023/10/27 01:46:33;;;;;;;12.60;8.77;;;20.20;70.50;;;;;;4975557;28;20545;-81
2023/10/27 01:49:01;;;;;;;13.10;9.33;;;20.20;70.80;;;;;;4968507;28;20532;-80
2023/10/27 01:51:29;;;;;;;17.23;9.53;;;20.20;70.60;;;;;;4977140;28;20466;-81
2023/10/27 01:53:57;;;;;;;14.40;8.70;;;20.20;70.70;;;;;;4978751;28;20508;-81
2023/10/27 01:56:25;;;;;;;14.47;9.10;;;20.20;70.70;;;;;;4969655;28;20528;-81
2023/10/27 01:58:54;;;;;;;14.57;9.03;;;20.10;70.40;;;;;;4971839;28;20438;-81
2023/10/27 02:01:22;;;;;;;16.83;9.60;;;20.10;70.60;;;;;;4966746;28;20479;-81
2023/10/27 02:03:50;;;;;;;13.87;9.37;;;20.10;70.60;;;;;;4966508;28;20800;-81
2023/10/27 02:06:23;;;;;;;15.73;9.73;;;20.10;70.70;;;;;;4976746;28;20438;-82
2023/10/27 02:08:51;;;;;;;13.43;9.37;;;20.10;70.80;;;;;;4987492;28;20464;-81
2023/10/27 02:11:19;;;;;;;13.30;8.67;;;20.10;70.50;;;;;;4978840;28;20527;-81
2023/10/27 02:13:47;;;;;;;14.43;8.93;;;20.10;70.70;;;;;;4979412;28;20476;-81
2023/10/27 02:16:16;;;;;;;12.93;8.33;;;20.10;70.90;;;;;;4991525;28;20511;-81
2023/10/27 02:18:44;;;;;;;14.37;8.70;;;20.10;70.80;;;;;;4961682;28;20451;-81
2023/10/27 02:21:12;;;;;;;19.00;8.17;;;20.10;71.00;;;;;;4989401;28;20488;-81
2023/10/27 02:23:40;;;;;;;13.73;8.00;;;20.10;70.80;;;;;;4984561;28;20458;-81
2023/10/27 02:26:08;;;;;;;11.77;7.93;;;20.00;71.00;;;;;;4979638;28;20449;-81
2023/10/27 02:28:37;;;;;;;11.67;8.17;;;20.10;71.10;;;;;;4979938;28;20527;-80
2023/10/27 02:31:05;;;;;;;11.77;7.67;;;20.00;71.00;;;;;;4983453;28;20609;-81
2023/10/27 02:33:34;;;;;;;16.17;8.07;;;20.00;70.90;;;;;;4967889;28;20451;-81
2023/10/27 02:36:02;;;;;;;16.73;8.70;;;20.10;71.00;;;;;;4978206;28;20450;-81
2023/10/27 02:38:30;;;;;;;13.50;8.57;;;20.00;71.00;;;;;;4983124;28;20449;-81
2023/10/27 02:40:58;;;;;;;11.33;8.00;;;20.00;70.70;;;;;;4990875;28;20544;-81
2023/10/27 02:43:27;;;;;;;11.17;7.50;;;20.00;71.00;;;;;;4979404;28;20897;-82
2023/10/27 02:46:01;;;;;;;10.80;7.87;;;20.00;70.90;;;;;;4975454;28;20453;-80
2023/10/27 02:48:29;;;;;;;12.20;8.00;;;20.00;71.10;;;;;;4975584;28;20445;-81
2023/10/27 02:50:59;;;;;;;9.67;7.30;;;20.00;71.10;;;;;;4976438;28;20451;-81
2023/10/27 02:53:27;;;;;;;15.10;8.40;;;20.00;71.00;;;;;;4984440;28;20456;-81
2023/10/27 02:55:55;;;;;;;9.57;7.20;;;20.00;71.00;;;;;;4974969;28;20481;-81
2023/10/27 02:58:23;;;;;;;9.93;7.17;;;20.00;70.90;;;;;;4969964;28;20545;-81
2023/10/27 03:00:51;;;;;;;11.13;7.70;;;20.00;71.00;;;;;;4980709;28;20454;-80
2023/10/27 03:03:19;;;;;;;11.93;7.60;;;19.90;71.20;;;;;;4970408;28;20891;-80
2023/10/27 03:05:47;;;;;;;9.97;7.40;;;20.00;71.10;;;;;;4975171;28;20481;-81
2023/10/27 03:08:16;;;;;;;10.07;7.37;;;20.00;71.00;;;;;;4976172;28;20519;-81
2023/10/27 03:10:44;;;;;;;11.93;7.20;;;20.00;71.00;;;;;;4990417;28;20466;-80
2023/10/27 03:13:12;;;;;;;9.23;7.00;;;19.90;70.90;;;;;;4975361;28;20518;-80
2023/10/27 03:15:39;;;;;;;9.60;6.27;;;19.90;71.10;;;;;;4976112;28;20460;-80
2023/10/27 03:18:08;;;;;;;8.63;6.90;;;19.90;71.40;;;;;;4970325;28;20512;-80
2023/10/27 03:20:35;;;;;;;10.10;7.10;;;19.90;71.10;;;;;;4967979;28;20479;-80
2023/10/27 03:23:03;;;;;;;10.73;6.90;;;19.90;71.30;;;;;;4973288;28;20450;-81
2023/10/27 03:25:31;;;;;;;11.40;7.30;;;19.90;71.20;;;;;;4973507;28;20510;-81
2023/10/27 03:27:59;;;;;;;12.77;6.10;;;19.90;71.30;;;;;;4972900;28;20456;-81
2023/10/27 03:30:27;;;;;;;9.97;7.00;;;19.90;71.40;;;;;;4972620;28;20493;-81
2023/10/27 03:32:55;;;;;;;9.33;5.97;;;19.90;71.40;;;;;;4973477;28;20471;-81
2023/10/27 03:35:24;;;;;;;9.13;6.33;;;19.90;71.00;;;;;;4987250;28;20424;-81
2023/10/27 03:37:52;;;;;;;9.20;6.80;;;19.90;71.40;;;;;;4990745;28;20548;-80
2023/10/27 03:40:20;;;;;;;9.40;6.80;;;19.90;71.30;;;;;;4987237;28;20556;-81
2023/10/27 03:42:49;;;;;;;10.10;5.87;;;19.90;71.40;;;;;;4990564;28;20445;-80
2023/10/27 03:45:17;;;;;;;10.20;6.07;;;19.90;71.20;;;;;;4970885;28;20465;-81
2023/10/27 03:47:45;;;;;;;8.80;6.40;;;19.90;71.40;;;;;;4979160;28;20461;-81
2023/10/27 03:50:13;;;;;;;7.60;5.97;;;19.90;71.30;;;;;;4983110;28;20465;-80
2023/10/27 03:52:41;;;;;;;8.43;6.50;;;19.90;71.30;;;;;;4982500;28;20519;-80
2023/10/27 03:55:11;;;;;;;7.57;5.83;;;19.90;71.40;;;;;;4986125;28;20532;-81
2023/10/27 03:57:41;;;;;;;10.37;6.43;;;19.90;71.40;;;;;;4987556;28;20496;-81
2023/10/27 04:00:11;;;;;;;6.70;5.60;;;19.90;71.20;;;;;;4972403;28;20811;-81
2023/10/27 04:02:43;;;;;;;9.00;6.30;;;19.90;71.40;;;;;;4982121;28;20517;-80
2023/10/27 04:05:11;;;;;;;8.27;6.07;;;19.90;71.40;;;;;;4978809;28;20505;-80
2023/10/27 04:07:39;;;;;;;8.60;6.00;;;19.90;71.40;;;;;;4979676;28;20457;-80
2023/10/27 04:10:08;;;;;;;7.50;5.57;;;19.90;71.40;;;;;;4974529;28;20473;-79
2023/10/27 04:12:36;;;;;;;7.60;6.30;;;19.90;71.40;;;;;;4983151;28;21027;-80
2023/10/27 04:15:05;;;;;;;9.10;5.70;;;19.90;71.40;;;;;;4982595;28;20529;-80
2023/10/27 04:17:34;;;;;;;7.77;5.50;;;19.90;71.50;;;;;;4979830;28;20476;-80
2023/10/27 04:20:03;;;;;;;11.83;5.70;;;19.90;71.40;;;;;;4986330;28;20472;-80
2023/10/27 04:22:32;;;;;;;12.33;5.70;;;19.80;71.40;;;;;;4994385;28;20493;-79
2023/10/27 04:25:00;;;;;;;7.63;5.50;;;19.80;71.30;;;;;;4978869;28;20452;-80
2023/10/27 04:27:29;;;;;;;6.50;5.43;;;19.80;71.70;;;;;;4989597;28;20456;-80
2023/10/27 04:29:57;;;;;;;6.20;5.30;;;19.80;71.60;;;;;;4986742;28;20550;-80
2023/10/27 04:32:26;;;;;;;6.10;4.90;;;19.80;71.50;;;;;;4984628;28;20446;-80
2023/10/27 04:34:56;;;;;;;7.00;5.67;;;19.80;71.50;;;;;;4984240;28;20542;-80
2023/10/27 04:37:23;;;;;;;8.13;6.00;;;19.80;71.80;;;;;;4988296;28;20540;-80
2023/10/27 04:39:54;;;;;;;7.73;5.20;;;19.80;71.50;;;;;;4988021;28;20472;-79
2023/10/27 04:42:23;;;;;;;8.33;5.80;;;19.80;71.80;;;;;;4973402;28;20454;-80
2023/10/27 04:44:51;;;;;;;5.70;4.87;;;19.80;71.60;;;;;;4986198;28;20532;-80
2023/10/27 04:47:19;;;;;;;6.40;4.93;;;19.80;71.70;;;;;;4984681;28;20554;-80
2023/10/27 04:49:47;;;;;;;7.63;4.80;;;19.80;71.80;;;;;;4976639;28;20460;-80
2023/10/27 04:52:16;;;;;;;6.63;5.53;;;19.80;71.80;;;;;;4984000;28;20500;-79
2023/10/27 04:54:44;;;;;;;7.17;5.40;;;19.80;71.50;;;;;;4979178;28;20447;-79
2023/10/27 04:57:12;;;;;;;6.93;5.13;;;19.80;71.70;;;;;;4974860;28;20541;-80
2023/10/27 04:59:40;;;;;;;5.73;4.67;;;19.80;71.60;;;;;;4988516;28;20924;-79
2023/10/27 05:02:08;;;;;;;5.83;4.37;;;19.80;71.40;;;;;;4974995;28;20501;-80
2023/10/27 05:04:36;;;;;;;5.27;4.77;;;19.80;71.80;;;;;;4973676;28;20447;-80
2023/10/27 05:07:05;;;;;;;5.13;4.30;;;19.80;71.80;;;;;;4991102;28;20500;-80
2023/10/27 05:09:34;;;;;;;7.20;5.37;;;19.80;71.60;;;;;;4982607;28;20486;-80
2023/10/27 05:12:03;;;;;;;4.80;4.37;;;19.70;71.60;;;;;;4971059;28;20462;-80
2023/10/27 05:14:32;;;;;;;7.73;5.10;;;19.70;71.80;;;;;;4984248;28;20477;-80
2023/10/27 05:17:00;;;;;;;4.70;4.30;;;19.70;71.80;;;;;;4979675;28;20903;-80
2023/10/27 05:19:28;;;;;;;5.57;4.43;;;19.70;72.00;;;;;;4975591;28;20488;-80
2023/10/27 05:21:57;;;;;;;5.57;5.00;;;19.70;71.90;;;;;;4981445;28;20528;-81
2023/10/27 05:24:24;;;;;;;5.00;4.47;;;19.70;71.80;;;;;;4994092;28;20461;-80
2023/10/27 05:26:54;;;;;;;7.00;4.70;;;19.70;71.90;;;;;;4985912;28;20449;-82
2023/10/27 05:29:22;;;;;;;5.47;4.10;;;19.70;72.20;;;;;;4979471;28;20574;-80
2023/10/27 05:31:50;;;;;;;7.10;4.60;;;19.70;72.00;;;;;;4985344;28;20553;-81
2023/10/27 05:34:18;;;;;;;4.43;4.03;;;19.70;71.80;;;;;;4971124;28;20445;-80
2023/10/27 05:36:46;;;;;;;4.57;4.17;;;19.70;72.10;;;;;;4988227;28;20516;-80
2023/10/27 05:39:17;;;;;;;4.50;3.97;;;19.70;71.70;;;;;;4987147;28;20559;-80
2023/10/27 05:41:46;;;;;;;4.47;4.00;;;19.70;71.90;;;;;;4987627;28;20552;-80
2023/10/27 05:44:15;;;;;;;5.30;4.30;;;19.70;72.10;;;;;;4980314;28;20479;-80
2023/10/27 05:46:43;;;;;;;4.60;4.13;;;19.70;72.10;;;;;;4982543;28;20869;-80
2023/10/27 05:49:12;;;;;;;5.47;4.93;;;19.70;72.20;;;;;;4967087;28;20503;-80
2023/10/27 05:51:40;;;;;;;4.80;4.03;;;19.70;71.80;;;;;;4986578;28;20525;-80
2023/10/27 05:54:09;;;;;;;5.77;4.30;;;19.70;72.10;;;;;;4976541;28;20442;-80
2023/10/27 05:56:37;;;;;;;4.83;4.27;;;19.70;72.30;;;;;;4982839;28;20502;-80
2023/10/27 05:59:05;;;;;;;6.23;4.17;;;19.70;72.30;;;;;;4987044;28;20581;-80
2023/10/27 06:01:35;;;;;;;4.53;4.13;;;19.70;72.20;;;;;;4977952;28;20469;-80
2023/10/27 06:04:03;;;;;;;5.27;4.40;;;19.70;72.20;;;;;;4975498;28;20493;-80
2023/10/27 06:06:32;;;;;;;5.00;4.50;;;19.70;72.00;;;;;;4973469;28;20477;-79
2023/10/27 06:09:00;;;;;;;4.03;3.63;;;19.70;72.20;;;;;;4992259;28;20532;-80
2023/10/27 06:11:28;;;;;;;4.53;3.60;;;19.60;72.20;;;;;;4979876;28;20529;-80
2023/10/27 06:13:56;;;;;;;4.27;3.87;;;19.70;72.30;;;;;;4982664;28;20446;-80
2023/10/27 06:16:24;;;;;;;4.43;4.03;;;19.70;72.30;;;;;;4988867;28;20514;-81
2023/10/27 06:18:54;;;;;;;4.07;3.77;;;19.70;72.30;;;;;;4967773;28;20483;-80
2023/10/27 06:21:22;;;;;;;3.93;3.50;;;19.70;72.40;;;;;;4974934;28;20565;-79
2023/10/27 06:23:50;;;;;;;4.40;4.00;;;19.70;72.30;;;;;;4973346;28;20451;-80
2023/10/27 06:26:17;;;;;;;4.47;4.07;;;19.70;72.60;;;;;;4977299;28;20439;-80
2023/10/27 06:28:46;;;;;;;4.40;3.97;;;19.70;72.50;;;;;;4974700;28;20446;-80
2023/10/27 06:31:14;;;;;;;6.73;3.70;;;19.70;72.50;;;;;;4978361;28;20521;-80
2023/10/27 06:33:42;;;;;;;3.93;3.57;;;19.70;72.40;;;;;;4984719;28;20499;-79
2023/10/27 06:36:12;;;;;;;4.13;3.80;;;19.70;72.40;;;;;;4989295;28;20446;-80
2023/10/27 06:38:39;;;;;;;5.73;4.10;;;19.70;72.40;;;;;;4975446;28;20507;-79
2023/10/27 06:41:07;;;;;;;4.17;3.77;;;19.60;72.50;;;;;;4982773;28;20481;-79
2023/10/27 06:43:35;;;;;;;6.23;4.73;;;19.60;72.50;;;;;;4990922;28;20527;-80
2023/10/27 06:46:04;;;;;;;6.03;4.83;;;19.70;72.40;;;;;;4976485;28;20473;-81
2023/10/27 06:48:32;;;;;;;4.93;4.43;;;19.60;72.30;;;;;;4979165;28;20454;-79
2023/10/27 06:51:00;;;;;;;6.80;4.93;;;19.70;72.60;;;;;;4977218;28;21007;-80
2023/10/27 06:53:29;;;;;;;7.13;5.10;;;19.70;72.60;;;;;;4976252;28;20482;-80
2023/10/27 06:55:56;;;;;;;7.87;6.10;;;19.70;72.50;;;;;;4975835;28;20537;-79
2023/10/27 06:58:24;;;;;;;7.40;5.70;;;19.70;72.50;;;;;;4978374;28;20462;-80
2023/10/27 07:00:52;;;;;;;8.53;6.30;;;19.70;72.60;;;;;;4982644;28;20465;-80
2023/10/27 07:03:20;;;;;;;7.57;6.30;;;19.70;72.50;;;;;;4975533;28;20450;-80
2023/10/27 07:05:59;;;;;;;7.90;5.93;;;19.70;72.60;;;;;;4984112;28;20482;-80
2023/10/27 07:08:30;;;;;;;8.17;6.10;;;19.70;72.50;;;;;;4979558;28;20449;-80
2023/10/27 07:10:58;;;;;;;7.80;5.67;;;19.70;72.60;;;;;;4972103;28;20465;-80
2023/10/27 07:13:27;;;;;;;8.77;6.20;;;19.60;72.70;;;;;;4975539;28;20450;-80
2023/10/27 07:15:55;;;;;;;6.60;5.40;;;19.70;72.50;;;;;;4993924;28;20442;-80
2023/10/27 07:18:23;;;;;;;5.90;4.80;;;19.70;72.60;;;;;;4991673;28;20434;-80
2023/10/27 07:20:53;;;;;;;7.90;5.70;;;19.70;72.60;;;;;;4978297;28;20989;-80
2023/10/27 07:23:21;;;;;;;7.13;5.40;;;19.70;72.60;;;;;;4988474;28;20442;-80
2023/10/27 07:25:50;;;;;;;7.20;5.97;;;19.70;72.40;;;;;;4982922;28;20473;-81
2023/10/27 07:28:18;;;;;;;5.63;4.80;;;19.70;72.60;;;;;;4973462;28;20465;-80
2023/10/27 07:30:46;;;;;;;6.03;5.23;;;19.70;72.50;;;;;;4985554;28;20464;-80
2023/10/27 07:33:14;;;;;;;7.73;5.67;;;19.70;72.60;;;;;;4979587;28;20445;-79
2023/10/27 07:35:42;;;;;;;5.90;5.10;;;19.70;72.50;;;;;;4997092;28;20433;-80
2023/10/27 07:38:10;;;;;;;7.60;6.07;;;19.70;72.40;;;;;;4988766;28;20520;-80
2023/10/27 07:40:42;;;;;;;6.17;4.67;;;19.70;72.70;;;;;;4991162;28;20473;-79
2023/10/27 07:43:11;;;;;;;6.73;5.43;;;19.70;72.60;;;;;;4973922;28;20530;-80
2023/10/27 07:45:40;;;;;;;6.03;4.90;;;19.70;72.50;;;;;;4996290;28;20441;-80
2023/10/27 07:48:08;;;;;;;5.63;5.07;;;19.80;72.70;;;;;;4988622;28;20522;-80
2023/10/27 07:50:37;;;;;;;5.03;4.53;;;19.80;72.50;;;;;;4986094;28;20477;-78
2023/10/27 07:53:04;;;;;;;6.00;4.93;;;19.80;72.60;;;;;;4986917;28;20445;-78
2023/10/27 07:55:32;;;;;;;5.70;4.57;;;19.80;72.70;;;;;;4984754;28;20529;-78
2023/10/27 07:58:00;;;;;;;6.63;4.83;;;19.70;72.70;;;;;;4983541;28;20445;-79
2023/10/27 08:00:30;;;;;;;5.97;4.90;;;19.70;72.70;;;;;;4986982;28;20489;-78
2023/10/27 08:02:58;;;;;;;5.30;4.80;;;19.80;72.80;;;;;;4987075;28;20485;-79
2023/10/27 08:05:28;;;;;;;5.87;5.13;;;19.70;72.60;;;;;;4989963;28;20509;-79
2023/10/27 08:07:56;;;;;;;5.60;5.00;;;19.70;72.70;;;;;;4996436;28;20441;-78
2023/10/27 08:10:24;;;;;;;5.70;5.03;;;19.80;72.90;;;;;;4970285;28;20462;-80
2023/10/27 08:12:52;;;;;;;6.30;4.93;;;19.80;72.80;;;;;;4970945;28;20454;-79
2023/10/27 08:15:20;;;;;;;5.67;4.83;;;19.80;72.70;;;;;;4980592;28;20445;-79
2023/10/27 08:17:50;;;;;;;5.17;4.67;;;19.80;72.80;;;;;;4989222;28;20488;-80
2023/10/27 08:20:18;;;;;;;5.57;4.83;;;19.90;72.70;;;;;;4961168;28;20482;-80
2023/10/27 08:22:46;;;;;;;5.47;4.00;;;19.90;72.70;;;;;;4979461;28;20442;-81
2023/10/27 08:25:14;;;;;;;7.27;4.70;;;19.90;72.70;;;;;;4977561;28;20477;-80
2023/10/27 08:27:42;;;;;;;4.83;4.07;;;19.90;72.60;;;;;;4986925;28;20450;-79
2023/10/27 08:30:12;;;;;;;5.60;4.67;;;19.90;72.50;;;;;;4984528;28;20490;-77
2023/10/27 08:32:40;;;;;;;4.37;3.97;;;19.90;72.40;;;;;;4988615;28;20505;-79
2023/10/27 08:35:09;;;;;;;5.17;4.37;;;19.90;73.30;;;;;;4991623;28;20453;-79
2023/10/27 08:37:37;;;;;;;4.50;4.10;;;19.90;72.30;;;;;;4979615;28;20466;-79
2023/10/27 08:40:10;;;;;;;4.70;4.20;;;19.90;72.50;;;;;;4977860;28;20450;-79
2023/10/27 08:42:38;;;;;;;5.53;4.93;;;19.90;72.40;;;;;;4972223;28;20446;-79
2023/10/27 08:45:07;;;;;;;5.10;4.60;;;20.00;72.60;;;;;;4978478;28;20528;-78
2023/10/27 08:47:36;;;;;;;4.73;4.20;;;20.00;72.50;;;;;;4973934;28;20450;-78
2023/10/27 08:50:04;;;;;;;4.50;4.10;;;20.00;72.50;;;;;;4967216;28;20502;-78
2023/10/27 08:52:34;;;;;;;4.20;3.77;;;20.00;72.30;;;;;;4983652;28;20514;-80
2023/10/27 08:55:03;;;;;;;4.97;4.30;;;20.00;72.30;;;;;;4980467;28;20434;-78
2023/10/27 08:57:31;;;;;;;5.70;4.67;;;20.00;72.30;;;;;;4955002;28;20443;-78
2023/10/27 08:59:59;;;;;;;5.47;4.83;;;20.00;72.40;;;;;;4978621;28;20560;-78
2023/10/27 09:02:30;;;;;;;4.70;4.30;;;20.00;72.30;;;;;;4968349;28;20550;-78
2023/10/27 09:05:02;;;;;;;4.57;4.17;;;20.00;72.40;;;;;;4965466;28;20454;-77
2023/10/27 09:07:32;;;;;;;3.83;3.53;;;20.10;72.40;;;;;;4984232;28;20457;-77
2023/10/27 09:10:01;;;;;;;4.50;4.10;;;20.10;72.30;;;;;;4989783;28;20500;-77
2023/10/27 09:12:30;;;;;;;4.70;4.20;;;20.10;72.50;;;;;;4965203;28;20446;-77
2023/10/27 09:14:59;;;;;;;4.67;4.27;;;20.10;72.30;;;;;;4971104;28;20438;-78
2023/10/27 09:17:29;;;;;;;4.30;3.90;;;20.10;72.40;;;;;;4974727;28;20478;-77
2023/10/27 09:20:05;;;;;;;4.40;4.00;;;20.10;72.30;;;;;;4981819;28;20446;-77
2023/10/27 09:22:33;;;;;;;4.23;3.83;;;20.10;72.30;;;;;;4975778;28;20450;-77
2023/10/27 09:25:14;;;;;;;5.17;4.07;;;20.10;72.40;;;;;;4972262;28;20521;-79
2023/10/27 09:27:45;;;;;;;4.47;4.03;;;20.10;72.50;;;;;;4985817;28;20448;-78
2023/10/27 09:30:14;;;;;;;4.40;3.97;;;20.10;72.60;;;;;;4973505;28;21060;-78
2023/10/27 09:32:42;;;;;;;4.40;4.00;;;20.10;72.40;;;;;;4965858;28;20452;-78
2023/10/27 09:35:13;;;;;;;4.23;3.83;;;20.10;72.30;;;;;;4974835;28;20446;-77
2023/10/27 09:37:42;;;;;;;4.53;4.10;;;20.10;72.30;;;;;;4973101;28;20435;-78
2023/10/27 09:40:11;;;;;;;3.83;3.53;;;20.10;72.40;;;;;;4982372;28;20496;-78
2023/10/27 09:42:41;;;;;;;3.83;3.53;;;20.20;72.60;;;;;;4979370;28;20445;-79
2023/10/27 09:45:11;;;;;;;4.40;4.00;;;20.10;72.40;;;;;;4973768;28;20447;-79
2023/10/27 09:47:47;;;;;;;3.53;3.30;;;20.20;72.60;;;;;;4978637;28;20458;-78
2023/10/27 09:50:18;;;;;;;4.43;3.97;;;20.20;72.60;;;;;;4977046;28;20472;-77
2023/10/27 09:52:46;;;;;;;3.73;3.40;;;20.30;72.10;;;;;;4971392;28;20449;-78
2023/10/27 09:55:16;;;;;;;3.40;3.20;;;20.30;72.00;;;;;;4973546;28;20449;-78
2023/10/27 09:57:46;;;;;;;4.13;3.73;;;20.30;72.00;;;;;;4969563;28;20967;-77
2023/10/27 10:00:18;;;;;;;4.03;3.63;;;20.30;71.90;;;;;;4987909;28;20463;-80
2023/10/27 10:02:46;;;;;;;4.07;3.77;;;20.40;71.70;;;;;;4975609;28;20457;-77
2023/10/27 10:05:14;;;;;;;4.10;3.70;;;20.30;71.50;;;;;;4979502;28;20452;-77
2023/10/27 10:07:44;;;;;;;4.63;4.23;;;20.40;71.70;;;;;;4978794;28;20445;-76
2023/10/27 10:10:22;;;;;;;3.93;3.57;;;20.30;71.70;;;;;;4977482;28;20485;-77
2023/10/27 10:13:05;;;;;;;4.70;4.20;;;20.30;71.60;;;;;;4968141;28;20458;-77
2023/10/27 10:15:34;;;;;;;18.63;11.00;;;20.40;71.60;;;;;;4965030;28;20485;-78
2023/10/27 10:18:04;;;;;;;19.83;11.83;;;19.90;68.50;;;;;;4974236;28;20624;-75
2023/10/27 10:20:58;;;;;;;19.57;11.63;;;19.40;67.40;;;;;;4976210;28;20487;-76
2023/10/27 10:24:05;;;;;;;18.90;11.70;;;19.00;68.90;;;;;;4966369;28;20466;-76
2023/10/27 10:27:10;;;;;;;16.10;11.33;;;18.80;69.90;;;;;;4971883;28;20465;-76
2023/10/27 10:29:41;;;;;;;17.70;11.37;;;18.60;70.00;;;;;;4973865;28;20446;-76
2023/10/27 10:32:29;;;;;;;18.00;11.57;;;18.50;70.60;;;;;;4973333;28;20558;-75
2023/10/27 10:35:22;;;;;;;19.57;12.40;;;18.50;71.40;;;;;;4967004;28;20455;-77
2023/10/27 10:37:53;;;;;;;19.23;11.50;;;18.40;70.20;;;;;;4963540;28;20450;-78
2023/10/27 10:40:24;;;;;;;16.50;11.00;;;18.30;71.60;;;;;;4978018;28;20529;-75
2023/10/27 10:43:23;;;;;;;20.63;11.57;;;18.40;71.70;;;;;;4980722;28;20452;-76
2023/10/27 10:45:56;;;;;;;15.60;11.10;;;18.30;70.30;;;;;;4975767;28;20476;-76
2023/10/27 10:48:25;;;;;;;25.50;10.80;;;18.20;71.10;;;;;;4970629;28;20454;-75
2023/10/27 10:50:56;;;;;;;16.73;11.03;;;18.30;71.80;;;;;;4975251;28;20470;-79
2023/10/27 10:53:25;;;;;;;15.17;10.27;;;18.60;72.00;;;;;;4977098;28;20438;-80
2023/10/27 10:55:57;;;;;;;15.57;10.97;;;19.00;71.10;;;;;;4982874;28;20458;-79
2023/10/27 10:58:26;;;;;;;15.80;9.50;;;19.30;70.20;;;;;;4963651;28;20461;-78
2023/10/27 11:00:57;;;;;;;11.43;8.90;;;19.50;69.50;;;;;;4974072;28;20484;-80
2023/10/27 11:03:25;;;;;;;12.00;8.93;;;19.70;68.80;;;;;;4978148;28;20492;-79
2023/10/27 11:05:56;;;;;;;10.90;8.63;;;19.80;68.20;;;;;;4966482;28;20470;-78
2023/10/27 11:08:25;;;;;;;11.07;8.30;;;19.90;67.90;;;;;;4977297;28;20450;-78
2023/10/27 11:11:00;;;;;;;9.80;7.60;;;20.00;67.70;;;;;;4971354;28;20527;-78
2023/10/27 11:13:28;;;;;;;11.37;8.27;;;20.00;67.50;;;;;;4965540;28;20474;-77
2023/10/27 11:15:57;;;;;;;11.07;7.47;;;20.00;67.20;;;;;;4961260;28;20494;-79
2023/10/27 11:18:27;;;;;;;11.33;7.13;;;20.10;67.50;;;;;;4970020;28;20477;-78
2023/10/27 11:20:55;;;;;;;9.90;6.80;;;20.20;67.10;;;;;;4974270;28;20477;-78
2023/10/27 11:23:27;;;;;;;8.83;6.80;;;20.20;67.10;;;;;;4977088;28;20446;-78
2023/10/27 11:26:01;;;;;;;7.00;6.30;;;20.30;67.00;;;;;;4966282;28;20536;-77
2023/10/27 11:28:29;;;;;;;8.13;6.40;;;20.30;66.90;;;;;;4966088;28;20422;-79
2023/10/27 11:31:05;;;;;;;6.43;5.80;;;20.30;67.00;;;;;;4973314;28;20473;-79
2023/10/27 11:33:35;;;;;;;6.70;6.00;;;20.40;66.80;;;;;;4966262;28;20469;-78
2023/10/27 11:36:03;;;;;;;8.00;5.63;;;20.40;66.80;;;;;;4974444;28;20460;-77
2023/10/27 11:38:32;;;;;;;6.40;5.80;;;20.40;66.80;;;;;;4973016;28;20450;-78
2023/10/27 11:41:12;;;;;;;7.17;5.50;;;20.40;66.70;;;;;;4974439;28;20480;-79
2023/10/27 11:43:40;;;;;;;7.50;5.83;;;20.40;66.90;;;;;;4967100;28;20469;-79
2023/10/27 11:46:14;;;;;;;6.40;5.70;;;20.40;66.90;;;;;;4972492;28;20445;-78
2023/10/27 11:48:42;;;;;;;5.77;5.17;;;20.50;67.00;;;;;;4973401;28;20459;-78
2023/10/27 11:51:10;;;;;;;5.80;5.20;;;20.50;67.00;;;;;;4971896;28;20461;-77
2023/10/27 11:53:42;;;;;;;6.17;5.53;;;20.50;67.00;;;;;;4980303;28;20472;-80
2023/10/27 11:56:09;;;;;;;5.40;4.90;;;20.50;67.00;;;;;;4980645;28;20469;-80
2023/10/27 11:58:38;;;;;;;5.93;5.33;;;20.50;67.00;;;;;;4976162;28;20474;-80
2023/10/27 12:01:07;;;;;;;5.40;5.00;;;20.60;67.00;;;;;;4976753;28;20473;-79
2023/10/27 12:03:36;;;;;;;5.30;4.90;;;20.50;67.00;;;;;;4977469;28;20933;-79
2023/10/27 12:06:04;;;;;;;5.77;5.20;;;20.60;67.20;;;;;;4964660;28;20514;-78
2023/10/27 12:08:32;;;;;;;5.23;4.83;;;20.60;67.10;;;;;;4969786;28;20505;-78
2023/10/27 12:11:00;;;;;;;5.30;4.90;;;20.60;67.00;;;;;;4976516;28;20604;-78
2023/10/27 12:13:28;;;;;;;5.90;5.30;;;20.60;67.10;;;;;;4976413;28;20421;-78
2023/10/27 12:15:56;;;;;;;5.53;5.10;;;20.70;67.10;;;;;;4966963;28;20514;-77
2023/10/27 12:18:24;;;;;;;5.53;5.10;;;20.60;67.10;;;;;;4979928;28;20481;-78
2023/10/27 12:20:53;;;;;;;5.20;4.70;;;20.60;67.00;;;;;;4977466;23;20500;-75
2023/10/27 12:23:21;;;;;;;5.03;4.53;;;20.70;67.20;;;;;;4963116;28;20506;-76
2023/10/27 12:25:50;;;;;;;4.50;4.20;;;20.70;67.20;;;;;;4955420;28;20514;-73
2023/10/27 12:28:18;;;;;;;5.43;4.90;;;20.80;67.20;;;;;;4954505;28;20451;-73
2023/10/27 12:30:46;;;;;;;5.90;5.30;;;20.80;67.00;;;;;;4960329;28;20440;-73
2023/10/27 12:33:14;;;;;;;6.80;4.80;;;20.80;67.10;;;;;;4952959;28;20431;-73
2023/10/27 12:35:41;;;;;;;5.30;4.90;;;20.80;67.00;;;;;;4956661;28;20534;-73
2023/10/27 12:38:11;;;;;;;7.43;4.90;;;20.80;67.10;;;;;;4959393;28;20485;-73
2023/10/27 12:40:39;;;;;;;5.17;4.67;;;20.80;67.20;;;;;;4952789;28;20566;-74
2023/10/27 12:43:07;;;;;;;5.30;4.80;;;20.80;67.10;;;;;;4950834;28;21070;-74
2023/10/27 12:45:35;;;;;;;5.30;4.80;;;20.90;67.40;;;;;;4954253;28;20837;-74
2023/10/27 12:48:03;;;;;;;5.23;4.50;;;20.90;67.20;;;;;;4952342;28;20550;-74
2023/10/27 12:50:31;;;;;;;4.83;4.43;;;20.90;67.30;;;;;;4946119;28;20455;-74